createdAt,value
2023-03-02T00:01:41.752Z,2.70
2023-03-02T00:04:13.353Z,2.80
2023-03-02T00:06:40.434Z,2.90
2023-03-02T00:09:07.432Z,2.90
2023-03-02T00:11:37.260Z,2.90
2023-03-02T00:14:05.073Z,2.80
2023-03-02T00:16:32.396Z,2.80
2023-03-02T00:18:59.551Z,2.70
2023-03-02T00:21:26.527Z,2.70
2023-03-02T00:23:53.553Z,2.60
2023-03-02T00:26:20.731Z,2.60
2023-03-02T00:28:47.904Z,2.70
2023-03-02T00:31:15.239Z,2.70
2023-03-02T00:33:42.688Z,2.70
2023-03-02T00:36:20.645Z,2.80
2023-03-02T00:38:47.912Z,2.80
2023-03-02T00:41:16.140Z,2.80
2023-03-02T00:43:43.666Z,2.70
2023-03-02T00:48:38.616Z,2.70
2023-03-02T00:51:06.635Z,2.80
2023-03-02T00:53:34.477Z,2.90
2023-03-02T00:56:02.395Z,2.90
2023-03-02T00:58:30.090Z,3.00
2023-03-02T01:00:57.722Z,3.00
2023-03-02T01:03:24.959Z,3.00
2023-03-02T01:05:55.425Z,3.00
2023-03-02T01:08:25.452Z,3.00
2023-03-02T01:10:54.289Z,3.00
2023-03-02T01:13:21.407Z,3.00
2023-03-02T01:15:48.639Z,3.00
2023-03-02T01:18:15.704Z,2.90
2023-03-02T01:20:42.628Z,2.90
2023-03-02T01:23:09.526Z,2.90
2023-03-02T01:25:38.949Z,2.90
2023-03-02T01:28:05.975Z,2.90
2023-03-02T01:30:32.944Z,3.00
2023-03-02T01:32:59.854Z,3.00
2023-03-02T01:35:27.048Z,3.00
2023-03-02T01:37:54.038Z,3.00
2023-03-02T01:40:21.004Z,3.00
2023-03-02T01:42:55.988Z,3.00
2023-03-02T01:45:41.718Z,3.00
2023-03-02T01:48:11.301Z,2.90
2023-03-02T01:50:38.396Z,2.90
2023-03-02T01:53:05.704Z,2.90
2023-03-02T01:55:34.868Z,2.90
2023-03-02T02:00:42.304Z,2.90
2023-03-02T02:03:25.009Z,2.90
2023-03-02T02:06:12.142Z,2.90
2023-03-02T02:08:40.066Z,2.90
2023-03-02T02:11:07.578Z,2.90
2023-03-02T02:13:34.784Z,2.90
2023-03-02T02:16:02.183Z,2.90
2023-03-02T02:18:29.234Z,2.90
2023-03-02T02:20:57.196Z,2.90
2023-03-02T02:23:47.794Z,2.90
2023-03-02T02:26:43.821Z,2.90
2023-03-02T02:29:24.403Z,2.90
2023-03-02T02:32:18.067Z,2.80
2023-03-02T02:34:52.428Z,2.80
2023-03-02T02:37:33.646Z,2.80
2023-03-02T02:40:01.958Z,2.80
2023-03-02T02:42:33.692Z,2.80
2023-03-02T02:45:05.173Z,2.80
2023-03-02T02:47:32.611Z,2.70
2023-03-02T02:49:59.961Z,2.70
2023-03-02T02:52:28.996Z,2.70
2023-03-02T02:54:58.047Z,2.70
2023-03-02T02:57:29.362Z,2.70
2023-03-02T03:00:00.217Z,2.70
2023-03-02T03:02:28.605Z,2.70
2023-03-02T03:05:04.903Z,2.60
2023-03-02T03:07:32.935Z,2.70
2023-03-02T03:10:30.021Z,2.60
2023-03-02T03:12:57.346Z,2.60
2023-03-02T03:15:24.349Z,2.60
2023-03-02T03:17:56.949Z,2.60
2023-03-02T03:20:26.767Z,2.50
2023-03-02T03:22:54.252Z,2.50
2023-03-02T03:25:22.808Z,2.50
2023-03-02T03:27:49.836Z,2.50
2023-03-02T03:30:17.374Z,2.50
2023-03-02T03:32:44.696Z,2.50
2023-03-02T03:35:12.725Z,2.40
2023-03-02T03:37:41.443Z,2.40
2023-03-02T03:40:10.020Z,2.40
2023-03-02T03:42:38.418Z,2.40
2023-03-02T03:45:06.855Z,2.40
2023-03-02T03:47:34.033Z,2.50
2023-03-02T03:50:01.094Z,2.50
2023-03-02T03:52:30.976Z,2.60
2023-03-02T03:54:59.737Z,2.50
2023-03-02T03:57:28.645Z,2.50
2023-03-02T03:59:56.521Z,2.60
2023-03-02T04:02:23.622Z,2.60
2023-03-02T04:04:51.160Z,2.50
2023-03-02T04:07:19.785Z,2.60
2023-03-02T04:09:46.846Z,2.60
2023-03-02T04:12:13.870Z,2.60
2023-03-02T04:14:40.883Z,2.50
2023-03-02T04:17:07.865Z,2.60
2023-03-02T04:19:35.676Z,2.50
2023-03-02T04:22:04.338Z,2.50
2023-03-02T04:24:31.894Z,2.50
2023-03-02T04:26:58.977Z,2.50
2023-03-02T04:29:26.342Z,2.50
2023-03-02T04:31:53.473Z,2.50
2023-03-02T04:34:20.457Z,2.50
2023-03-02T04:36:47.542Z,2.40
2023-03-02T04:39:16.585Z,2.40
2023-03-02T04:41:44.095Z,2.40
2023-03-02T04:44:11.053Z,2.40
2023-03-02T04:46:38.060Z,2.40
2023-03-02T04:49:05.648Z,2.50
2023-03-02T04:51:35.593Z,2.40
2023-03-02T04:54:06.340Z,2.50
2023-03-02T04:56:34.352Z,2.50
2023-03-02T04:59:01.522Z,2.50
2023-03-02T05:01:28.606Z,2.50
2023-03-02T05:03:55.750Z,2.50
2023-03-02T05:06:25.275Z,2.50
2023-03-02T05:08:53.716Z,2.50
2023-03-02T05:11:23.356Z,2.50
2023-03-02T05:13:57.602Z,2.60
2023-03-02T05:16:26.262Z,2.60
2023-03-02T05:18:53.228Z,2.60
2023-03-02T05:21:20.231Z,2.60
2023-03-02T05:23:47.927Z,2.60
2023-03-02T05:26:15.413Z,2.60
2023-03-02T05:28:42.558Z,2.60
2023-03-02T05:31:12.467Z,2.60
2023-03-02T05:33:39.409Z,2.60
2023-03-02T05:36:06.548Z,2.60
2023-03-02T05:38:34.622Z,2.70
2023-03-02T05:41:01.827Z,2.70
2023-03-02T05:43:28.843Z,2.70
2023-03-02T05:46:00.410Z,2.70
2023-03-02T05:48:29.726Z,2.80
2023-03-02T05:50:57.084Z,2.80
2023-03-02T05:53:24.464Z,2.80
2023-03-02T05:55:52.464Z,2.90
2023-03-02T05:58:20.878Z,2.90
2023-03-02T06:00:49.094Z,2.90
2023-03-02T06:03:17.074Z,2.90
2023-03-02T06:05:44.179Z,3.00
2023-03-02T06:08:11.106Z,3.10
2023-03-02T06:10:38.268Z,3.10
2023-03-02T06:13:05.274Z,3.20
2023-03-02T06:15:32.180Z,3.20
2023-03-02T06:17:59.142Z,3.20
2023-03-02T06:20:26.696Z,3.30
2023-03-02T06:22:53.642Z,3.30
2023-03-02T06:25:23.664Z,3.40
2023-03-02T06:27:52.519Z,3.40
2023-03-02T06:30:22.246Z,3.50
2023-03-02T06:32:49.514Z,3.60
2023-03-02T06:35:16.704Z,3.60
2023-03-02T06:37:44.523Z,3.70
2023-03-02T06:40:13.943Z,3.70
2023-03-02T06:42:42.518Z,3.70
2023-03-02T06:45:10.197Z,3.70
2023-03-02T06:47:37.317Z,3.70
2023-03-02T06:50:05.123Z,3.80
2023-03-02T06:52:32.421Z,3.90
2023-03-02T06:54:59.362Z,4.00
2023-03-02T06:57:33.680Z,4.10
2023-03-02T07:00:15.652Z,4.10
2023-03-02T07:02:43.220Z,4.20
2023-03-02T07:05:10.301Z,4.30
2023-03-02T07:07:39.032Z,4.40
2023-03-02T07:10:07.559Z,4.40
2023-03-02T07:12:34.776Z,4.50
2023-03-02T07:15:01.727Z,4.40
2023-03-02T07:17:28.789Z,4.40
2023-03-02T07:19:56.094Z,4.40
2023-03-02T07:22:23.173Z,4.40
2023-03-02T07:24:50.290Z,4.40
2023-03-02T07:27:17.221Z,4.40
2023-03-02T07:29:44.170Z,4.50
2023-03-02T07:32:12.671Z,4.50
2023-03-02T07:34:39.812Z,4.50
2023-03-02T07:37:16.850Z,4.50
2023-03-02T07:39:44.100Z,4.60
2023-03-02T07:42:12.989Z,4.60
2023-03-02T07:44:42.399Z,4.60
2023-03-02T07:47:09.449Z,4.60
2023-03-02T07:49:36.705Z,4.60
2023-03-02T07:52:04.578Z,4.70
2023-03-02T07:54:31.703Z,4.70
2023-03-02T07:57:02.138Z,4.70
2023-03-02T07:59:29.456Z,4.70
2023-03-02T08:01:57.576Z,4.80
2023-03-02T08:04:25.186Z,5.00
2023-03-02T08:06:52.394Z,5.40
2023-03-02T08:09:19.413Z,5.50
2023-03-02T08:11:47.886Z,5.50
2023-03-02T08:14:14.969Z,5.50
2023-03-02T08:16:42.098Z,5.60
2023-03-02T08:19:09.193Z,5.80
2023-03-02T08:21:36.257Z,5.80
2023-03-02T08:24:03.533Z,5.80
2023-03-02T08:26:31.078Z,5.80
2023-03-02T08:28:59.122Z,5.80
2023-03-02T08:31:26.794Z,5.70
2023-03-02T08:33:54.284Z,5.60
2023-03-02T08:36:21.863Z,5.60
2023-03-02T08:38:49.806Z,5.60
2023-03-02T08:41:20.165Z,5.80
2023-03-02T08:43:47.854Z,5.90
2023-03-02T08:46:17.311Z,6.00
2023-03-02T08:48:44.961Z,6.20
2023-03-02T08:51:17.889Z,6.20
2023-03-02T08:53:48.285Z,6.20
2023-03-02T08:56:28.206Z,6.20
2023-03-02T08:58:57.672Z,6.20
2023-03-02T09:01:30.137Z,6.20
2023-03-02T09:04:00.001Z,6.10
2023-03-02T09:06:28.909Z,6.10
2023-03-02T09:08:56.068Z,6.20
2023-03-02T09:11:23.147Z,6.20
2023-03-02T09:13:50.113Z,6.10
2023-03-02T09:16:17.539Z,5.90
2023-03-02T09:18:44.596Z,5.90
2023-03-02T09:21:11.578Z,5.90
2023-03-02T09:23:38.497Z,6.10
2023-03-02T09:26:05.764Z,6.10
2023-03-02T09:28:33.014Z,6.10
2023-03-02T09:31:02.836Z,6.00
2023-03-02T09:33:30.946Z,6.00
2023-03-02T09:35:58.071Z,6.10
2023-03-02T09:38:25.648Z,6.30
2023-03-02T09:41:20.503Z,6.20
2023-03-02T09:44:02.970Z,6.00
2023-03-02T09:46:41.578Z,5.90
2023-03-02T09:49:44.594Z,5.90
2023-03-02T09:52:24.019Z,6.10
2023-03-02T09:54:51.411Z,6.30
2023-03-02T09:57:24.128Z,6.30
2023-03-02T10:00:18.740Z,6.20
2023-03-02T10:03:11.428Z,6.10
2023-03-02T10:05:44.496Z,6.00
2023-03-02T10:08:21.281Z,6.00
2023-03-02T10:11:09.935Z,6.00
2023-03-02T10:13:56.370Z,6.10
2023-03-02T10:16:32.726Z,6.00
2023-03-02T10:19:19.018Z,6.00
2023-03-02T10:21:49.291Z,5.90
2023-03-02T10:24:31.501Z,5.80
2023-03-02T10:27:34.475Z,5.70
2023-03-02T10:30:28.021Z,5.70
2023-03-02T10:33:00.520Z,5.70
2023-03-02T10:35:29.161Z,5.80
2023-03-02T10:38:02.279Z,5.80
2023-03-02T10:40:42.816Z,5.70
2023-03-02T10:43:42.646Z,5.90
2023-03-02T10:46:11.914Z,5.90
2023-03-02T10:49:01.288Z,5.90
2023-03-02T10:51:29.795Z,6.00
2023-03-02T10:54:09.550Z,6.10
2023-03-02T10:56:37.706Z,6.30
2023-03-02T10:59:41.231Z,6.40
2023-03-02T11:02:18.618Z,6.30
2023-03-02T11:04:46.053Z,6.10
2023-03-02T11:07:18.485Z,6.00
2023-03-02T11:10:03.687Z,6.00
2023-03-02T11:12:31.906Z,6.10
2023-03-02T11:15:14.898Z,6.10
2023-03-02T11:17:45.479Z,6.10
2023-03-02T11:20:22.074Z,6.00
2023-03-02T11:23:15.837Z,6.10
2023-03-02T11:25:51.913Z,6.20
2023-03-02T11:28:27.811Z,6.20
2023-03-02T11:30:57.623Z,6.30
2023-03-02T11:33:34.710Z,6.30
2023-03-02T11:36:20.711Z,6.20
2023-03-02T11:38:49.358Z,6.10
2023-03-02T11:41:27.413Z,6.00
2023-03-02T11:43:55.166Z,6.00
2023-03-02T11:46:30.733Z,6.30
2023-03-02T11:49:03.731Z,6.40
2023-03-02T11:51:36.270Z,6.20
2023-03-02T11:54:34.042Z,6.20
2023-03-02T11:57:01.980Z,6.20
2023-03-02T11:59:30.532Z,6.10
2023-03-02T12:02:00.734Z,6.10
2023-03-02T12:04:37.649Z,6.00
2023-03-02T12:07:18.800Z,6.10
2023-03-02T12:10:02.329Z,6.10
2023-03-02T12:12:38.888Z,6.10
2023-03-02T12:15:40.159Z,6.00
2023-03-02T12:18:22.564Z,5.90
2023-03-02T12:21:09.376Z,5.80
2023-03-02T12:23:53.119Z,5.90
2023-03-02T12:26:20.185Z,5.80
2023-03-02T12:29:11.815Z,5.70
2023-03-02T12:31:44.188Z,5.70
2023-03-02T12:34:33.713Z,5.70
2023-03-02T12:37:19.214Z,5.80
2023-03-02T12:40:16.612Z,5.90
2023-03-02T12:43:11.894Z,6.10
2023-03-02T12:45:47.397Z,6.30
2023-03-02T12:48:36.107Z,6.20
2023-03-02T12:51:05.241Z,6.40
2023-03-02T12:53:32.501Z,6.50
2023-03-02T12:55:59.517Z,6.60
2023-03-02T12:58:29.028Z,6.70
2023-03-02T13:00:59.211Z,6.70
2023-03-02T13:03:28.837Z,6.70
2023-03-02T13:06:14.349Z,6.60
2023-03-02T13:08:44.667Z,6.60
2023-03-02T13:11:12.397Z,6.40
2023-03-02T13:13:42.462Z,6.30
2023-03-02T13:16:25.022Z,6.30
2023-03-02T13:18:57.120Z,6.30
2023-03-02T13:21:40.449Z,6.40
2023-03-02T13:24:31.283Z,6.50
2023-03-02T13:27:15.844Z,6.60
2023-03-02T13:29:42.858Z,6.70
2023-03-02T13:32:36.478Z,6.80
2023-03-02T13:35:04.953Z,6.80
2023-03-02T13:37:43.666Z,6.90
2023-03-02T13:40:22.800Z,6.90
2023-03-02T13:42:49.877Z,6.80
2023-03-02T13:45:33.548Z,6.80
2023-03-02T13:48:12.655Z,6.80
2023-03-02T13:50:39.591Z,6.80
2023-03-02T13:53:08.465Z,6.80
2023-03-02T13:55:35.765Z,6.70
2023-03-02T13:58:02.995Z,6.70
2023-03-02T14:00:35.281Z,6.70
2023-03-02T14:03:02.645Z,6.70
2023-03-02T14:05:33.452Z,6.70
2023-03-02T14:08:00.474Z,6.60
2023-03-02T14:10:27.550Z,6.60
2023-03-02T14:12:58.413Z,6.60
2023-03-02T14:15:25.509Z,6.70
2023-03-02T14:17:55.553Z,6.70
2023-03-02T14:20:22.490Z,6.80
2023-03-02T14:22:50.681Z,6.90
2023-03-02T14:25:17.983Z,7.00
2023-03-02T14:27:47.240Z,7.10
2023-03-02T14:30:20.693Z,7.10
2023-03-02T14:32:47.779Z,6.90
2023-03-02T14:35:16.701Z,6.80
2023-03-02T14:37:48.450Z,6.70
2023-03-02T14:40:18.958Z,6.60
2023-03-02T14:42:45.988Z,6.40
2023-03-02T14:45:13.037Z,6.30
2023-03-02T14:47:40.387Z,6.10
2023-03-02T14:50:07.697Z,5.90
2023-03-02T14:52:48.405Z,5.80
2023-03-02T14:55:15.362Z,5.70
2023-03-02T14:57:42.384Z,5.70
2023-03-02T15:00:15.414Z,5.50
2023-03-02T15:02:42.824Z,5.40
2023-03-02T15:05:10.275Z,5.30
2023-03-02T15:07:38.978Z,5.20
2023-03-02T15:10:07.413Z,5.10
2023-03-02T15:12:34.537Z,5.00
2023-03-02T15:15:01.507Z,4.90
2023-03-02T15:17:28.453Z,4.90
2023-03-02T15:19:55.337Z,4.80
2023-03-02T15:22:22.328Z,4.70
2023-03-02T15:24:49.350Z,4.60
2023-03-02T15:27:16.409Z,4.60
2023-03-02T15:29:47.263Z,4.50
2023-03-02T15:32:14.436Z,4.50
2023-03-02T15:34:41.715Z,4.40
2023-03-02T15:37:13.248Z,4.30
2023-03-02T15:39:40.690Z,4.20
2023-03-02T15:42:07.720Z,4.10
2023-03-02T15:44:34.684Z,4.00
2023-03-02T15:47:02.143Z,3.90
2023-03-02T15:49:29.519Z,3.80
2023-03-02T15:51:57.967Z,3.80
2023-03-02T15:54:26.438Z,3.70
2023-03-02T15:56:53.663Z,3.70
2023-03-02T15:59:21.815Z,3.60
2023-03-02T16:01:49.166Z,3.60
2023-03-02T16:04:16.076Z,3.60
2023-03-02T16:06:43.070Z,3.60
2023-03-02T16:09:10.034Z,3.50
2023-03-02T16:11:37.349Z,3.60
2023-03-02T16:14:04.689Z,3.60
2023-03-02T16:16:31.709Z,3.60
2023-03-02T16:18:59.423Z,3.60
2023-03-02T16:21:28.899Z,3.70
2023-03-02T16:24:03.302Z,3.70
2023-03-02T16:26:34.669Z,3.70
2023-03-02T16:29:01.966Z,3.70
2023-03-02T16:31:32.342Z,3.70
2023-03-02T16:34:03.803Z,3.70
2023-03-02T16:36:30.824Z,3.70
2023-03-02T16:38:57.781Z,3.60
2023-03-02T16:41:25.694Z,3.50
2023-03-02T16:43:56.090Z,3.40
2023-03-02T16:46:25.509Z,3.40
2023-03-02T16:48:52.933Z,3.40
2023-03-02T16:51:20.943Z,3.50
2023-03-02T16:53:48.288Z,3.60
2023-03-02T16:56:15.889Z,3.70
2023-03-02T16:58:43.585Z,3.70
2023-03-02T17:01:14.554Z,3.70
2023-03-02T17:03:42.495Z,3.70
2023-03-02T17:06:11.184Z,3.60
2023-03-02T17:08:38.567Z,3.60
2023-03-02T17:11:05.987Z,3.60
2023-03-02T17:13:33.216Z,3.60
2023-03-02T17:16:00.262Z,3.60
2023-03-02T17:18:28.375Z,3.60
2023-03-02T17:20:56.898Z,3.70
2023-03-02T17:23:24.096Z,3.80
2023-03-02T17:25:51.125Z,3.80
2023-03-02T17:28:18.135Z,3.80
2023-03-02T17:30:45.489Z,3.80
2023-03-02T17:33:14.885Z,3.70
2023-03-02T17:35:42.644Z,3.70
2023-03-02T17:38:09.660Z,3.80
2023-03-02T17:40:37.239Z,3.80
2023-03-02T17:43:04.228Z,3.70
2023-03-02T17:45:31.209Z,3.70
2023-03-02T17:47:59.125Z,3.60
2023-03-02T17:50:27.273Z,3.60
2023-03-02T17:52:57.119Z,3.60
2023-03-02T17:55:24.078Z,3.60
2023-03-02T17:57:51.076Z,3.60
2023-03-02T18:00:21.668Z,3.50
2023-03-02T18:02:49.004Z,3.50
2023-03-02T18:05:15.983Z,3.50
2023-03-02T18:07:42.949Z,3.60
2023-03-02T18:10:10.637Z,3.50
2023-03-02T18:12:37.766Z,3.50
2023-03-02T18:15:05.769Z,3.40
2023-03-02T18:17:32.823Z,3.40
2023-03-02T18:19:59.830Z,3.30
2023-03-02T18:22:26.819Z,3.30
2023-03-02T18:24:53.808Z,3.20
2023-03-02T18:27:20.875Z,3.10
2023-03-02T18:29:47.861Z,3.20
2023-03-02T18:32:14.985Z,3.10
2023-03-02T18:34:42.270Z,3.10
2023-03-02T18:37:09.389Z,3.10
2023-03-02T18:39:37.882Z,3.00
2023-03-02T18:42:05.607Z,3.00
2023-03-02T18:44:33.238Z,2.90
2023-03-02T18:47:00.980Z,2.80
2023-03-02T18:49:28.606Z,2.80
2023-03-02T18:51:56.816Z,2.70
2023-03-02T18:54:24.467Z,2.70
2023-03-02T18:56:51.788Z,2.60
2023-03-02T18:59:19.162Z,2.60
2023-03-02T19:01:47.313Z,2.60
2023-03-02T19:04:15.056Z,2.60
2023-03-02T19:06:43.488Z,2.50
2023-03-02T19:09:11.257Z,2.50
2023-03-02T19:11:38.243Z,2.50
2023-03-02T19:14:05.264Z,2.40
2023-03-02T19:16:32.867Z,2.40
2023-03-02T19:18:59.886Z,2.40
2023-03-02T19:21:26.941Z,2.30
2023-03-02T19:23:57.995Z,2.20
2023-03-02T19:26:25.073Z,2.30
2023-03-02T19:28:55.960Z,2.30
2023-03-02T19:31:24.251Z,2.20
2023-03-02T19:33:51.629Z,2.20
2023-03-02T19:36:18.676Z,2.20
2023-03-02T19:38:45.753Z,2.30
2023-03-02T19:41:15.222Z,2.30
2023-03-02T19:43:42.858Z,2.30
2023-03-02T19:46:10.991Z,2.30
2023-03-02T19:48:38.430Z,2.30
2023-03-02T19:51:06.507Z,2.20
2023-03-02T19:53:34.655Z,2.20
2023-03-02T19:56:03.831Z,2.20
2023-03-02T19:58:32.460Z,2.30
2023-03-02T20:00:59.507Z,2.30
2023-03-02T20:03:26.545Z,2.40
2023-03-02T20:05:55.981Z,2.40
2023-03-02T20:08:23.064Z,2.50
2023-03-02T20:10:50.244Z,2.50
2023-03-02T20:13:17.993Z,2.50
2023-03-02T20:15:47.348Z,2.50
2023-03-02T20:18:18.866Z,2.40
2023-03-02T20:20:47.353Z,2.40
2023-03-02T20:23:15.323Z,2.40
2023-03-02T20:25:42.752Z,2.30
2023-03-02T20:28:12.429Z,2.30
2023-03-02T20:30:43.197Z,2.30
2023-03-02T20:33:10.337Z,2.20
2023-03-02T20:35:41.205Z,2.30
2023-03-02T20:38:13.938Z,2.30
2023-03-02T20:40:41.036Z,2.40
2023-03-02T20:43:08.053Z,2.40
2023-03-02T20:45:35.296Z,2.40
2023-03-02T20:48:03.228Z,2.40
2023-03-02T20:50:33.239Z,2.40
2023-03-02T20:53:01.007Z,2.40
2023-03-02T20:55:28.273Z,2.30
2023-03-02T20:57:56.092Z,2.30
2023-03-02T21:00:26.319Z,2.20
2023-03-02T21:02:53.737Z,2.20
2023-03-02T21:05:21.735Z,2.20
2023-03-02T21:07:52.346Z,2.20
2023-03-02T21:10:34.674Z,2.20
2023-03-02T21:13:02.434Z,2.20
2023-03-02T21:15:29.563Z,2.20
2023-03-02T21:17:57.400Z,2.20
2023-03-02T21:20:28.476Z,2.20
2023-03-02T21:22:55.790Z,2.30
2023-03-02T21:25:22.904Z,2.20
2023-03-02T21:27:49.902Z,2.20
2023-03-02T21:30:23.905Z,2.10
2023-03-02T21:32:51.113Z,2.20
2023-03-02T21:35:20.322Z,2.20
2023-03-02T21:37:49.159Z,2.10
2023-03-02T21:40:37.815Z,2.00
2023-03-02T21:43:05.758Z,2.00
2023-03-02T21:45:33.271Z,2.00
2023-03-02T21:48:00.371Z,2.00
2023-03-02T21:50:30.264Z,2.00
2023-03-02T21:52:59.484Z,2.00
2023-03-02T21:55:27.539Z,1.90
2023-03-02T21:57:57.585Z,2.00
2023-03-02T22:00:28.062Z,2.00
2023-03-02T22:02:55.612Z,2.00
2023-03-02T22:05:22.781Z,1.90
2023-03-02T22:07:49.971Z,1.80
2023-03-02T22:10:44.359Z,1.80
2023-03-02T22:13:20.562Z,1.80
2023-03-02T22:15:49.466Z,1.70
2023-03-02T22:18:19.313Z,1.80
2023-03-02T22:20:48.777Z,1.80
2023-03-02T22:23:17.175Z,1.70
2023-03-02T22:25:44.381Z,1.80
2023-03-02T22:28:25.894Z,1.70
2023-03-02T22:30:57.570Z,1.80
2023-03-02T22:33:27.868Z,1.80
2023-03-02T22:36:04.651Z,1.70
2023-03-02T22:38:31.934Z,1.70
2023-03-02T22:40:59.278Z,1.60
2023-03-02T22:43:29.636Z,1.60
2023-03-02T22:46:11.303Z,1.50
2023-03-02T22:48:38.878Z,1.50
2023-03-02T22:51:18.303Z,1.50
2023-03-02T22:53:57.555Z,1.40
2023-03-02T22:56:42.752Z,1.40
2023-03-02T22:59:27.646Z,1.40
2023-03-02T23:02:00.238Z,1.40
2023-03-02T23:04:37.298Z,1.30
2023-03-02T23:07:19.516Z,1.30
2023-03-02T23:09:46.935Z,1.30
2023-03-02T23:12:22.493Z,1.20
2023-03-02T23:14:57.330Z,1.10
2023-03-02T23:17:39.090Z,1.10
2023-03-02T23:20:10.842Z,1.10
2023-03-02T23:22:39.210Z,1.10
2023-03-02T23:25:08.013Z,1.10
2023-03-02T23:27:35.353Z,1.10
2023-03-02T23:30:02.979Z,1.20
2023-03-02T23:32:30.019Z,1.20
2023-03-02T23:34:57.133Z,1.30
2023-03-02T23:37:24.190Z,1.30
2023-03-02T23:39:51.207Z,1.30
2023-03-02T23:42:18.252Z,1.50
2023-03-02T23:44:45.413Z,1.60
2023-03-02T23:47:12.325Z,1.60
2023-03-02T23:49:39.317Z,1.70
2023-03-02T23:52:06.243Z,1.80
2023-03-02T23:54:33.353Z,1.90
2023-03-02T23:57:00.274Z,2.00
2023-03-02T23:59:27.207Z,2.20
